Time;durP1;ratioP1;P1;durP2;ratioP2;P2;SDS_P1;SDS_P2;PMS_P1;PMS_P2;Temp;Humidity;BMP_temperature;BMP_pressure;BME280_temperature;BME280_humidity;BME280_pressure;Samples;Min_cycle;Max_cycle;Signal;HPM_P1;HPM_P2
2022/05/04 00:02:25;;;;;;;11.43;4.43;;;4.90;84.70;;;;;;4844793;29;20185;-88
2022/05/04 00:04:51;;;;;;;7.00;3.97;;;4.90;84.30;;;;;;4828318;29;20186;-87
2022/05/04 00:07:16;;;;;;;16.07;4.40;;;4.90;83.70;;;;;;4827861;29;20193;-90
2022/05/04 00:09:42;;;;;;;16.10;4.40;;;4.90;83.80;;;;;;4827020;29;20209;-89
2022/05/04 00:12:08;;;;;;;13.17;4.30;;;4.90;83.90;;;;;;4827160;29;20567;-90
2022/05/04 00:14:34;;;;;;;11.03;3.80;;;4.90;83.60;;;;;;4826741;29;20285;-90
2022/05/04 00:16:59;;;;;;;15.87;4.17;;;4.90;83.40;;;;;;4827655;29;20304;-90
2022/05/04 00:19:25;;;;;;;10.70;3.83;;;4.90;83.10;;;;;;4826801;29;20201;-90
2022/05/04 00:21:51;;;;;;;9.30;3.90;;;4.80;82.80;;;;;;4826991;29;20576;-90
2022/05/04 00:24:19;;;;;;;11.07;4.80;;;4.80;82.60;;;;;;4827050;29;20194;-88
2022/05/04 00:26:46;;;;;;;9.77;4.13;;;4.80;82.40;;;;;;4826776;29;20186;-88
2022/05/04 00:29:14;;;;;;;12.20;4.03;;;4.80;82.50;;;;;;4827001;29;20272;-90
2022/05/04 00:31:40;;;;;;;14.87;5.27;;;4.80;82.70;;;;;;4826930;29;20650;-90
2022/05/04 00:34:05;;;;;;;15.27;4.17;;;4.70;82.50;;;;;;4827100;29;20220;-90
2022/05/04 00:36:31;;;;;;;20.97;4.80;;;4.80;82.00;;;;;;4826623;29;20291;-90
2022/05/04 00:38:57;;;;;;;17.27;3.83;;;4.60;81.90;;;;;;4826607;29;20272;-90
2022/05/04 00:41:26;;;;;;;12.23;4.60;;;4.60;82.20;;;;;;4842968;29;20211;-91
2022/05/04 00:43:53;;;;;;;11.07;3.93;;;4.60;82.20;;;;;;4826734;29;20186;-91
2022/05/04 00:46:20;;;;;;;12.87;4.47;;;4.40;82.10;;;;;;4826777;29;20192;-90
2022/05/04 00:48:46;;;;;;;10.33;4.43;;;4.40;82.10;;;;;;4826539;29;20206;-88
2022/05/04 00:51:11;;;;;;;15.07;5.77;;;4.30;82.40;;;;;;4826557;29;20190;-90
2022/05/04 00:53:39;;;;;;;13.37;5.07;;;4.30;82.80;;;;;;4842864;29;20190;-88
2022/05/04 00:56:08;;;;;;;9.17;4.30;;;4.30;82.90;;;;;;4827296;29;20263;-89
2022/05/04 01:01:20;;;;;;;11.97;4.73;;;4.30;83.00;;;;;;4843376;29;20210;-89
2022/05/04 01:03:45;;;;;;;14.30;4.73;;;4.30;82.70;;;;;;4826539;29;20642;-89
2022/05/04 01:06:12;;;;;;;11.30;4.80;;;4.30;83.20;;;;;;4842535;29;20215;-89
2022/05/04 01:08:41;;;;;;;12.37;4.93;;;4.30;83.60;;;;;;4842735;29;20240;-87
2022/05/04 01:11:06;;;;;;;13.43;4.87;;;4.30;83.50;;;;;;4826758;29;20196;-89
2022/05/04 01:13:32;;;;;;;11.70;5.00;;;4.30;83.20;;;;;;4826482;29;20188;-88
2022/05/04 01:15:57;;;;;;;16.83;5.03;;;4.30;83.10;;;;;;4827534;29;20523;-89
2022/05/04 01:18:23;;;;;;;13.90;5.10;;;4.30;83.90;;;;;;4826167;29;20711;-89
2022/05/04 01:20:49;;;;;;;10.33;5.13;;;4.30;84.00;;;;;;4846360;29;20216;-89
2022/05/04 01:23:16;;;;;;;15.57;4.83;;;4.30;83.70;;;;;;4829798;29;20261;-89
2022/05/04 01:25:42;;;;;;;18.97;5.13;;;4.30;83.60;;;;;;4829940;29;20216;-89
2022/05/04 01:28:07;;;;;;;11.97;5.27;;;4.30;83.80;;;;;;4846260;29;20602;-86
2022/05/04 01:30:34;;;;;;;16.63;4.90;;;4.30;84.50;;;;;;4830090;29;20212;-86
2022/05/04 01:33:00;;;;;;;14.37;4.57;;;4.30;84.40;;;;;;4829892;29;20554;-86
2022/05/04 01:35:26;;;;;;;14.03;4.47;;;4.30;84.20;;;;;;4829706;29;20219;-85
2022/05/04 01:37:51;;;;;;;13.20;4.07;;;4.30;83.80;;;;;;4829552;29;20705;-86
2022/05/04 01:40:17;;;;;;;18.33;4.30;;;4.30;83.50;;;;;;4829692;29;20209;-86
2022/05/04 01:42:43;;;;;;;13.40;4.67;;;4.30;83.30;;;;;;4829904;29;20193;-86
2022/05/04 01:45:09;;;;;;;13.23;4.70;;;4.20;83.10;;;;;;4829555;29;20273;-86
2022/05/04 01:47:35;;;;;;;14.37;4.80;;;4.20;83.00;;;;;;4846048;29;20184;-85
2022/05/04 01:50:01;;;;;;;10.93;4.30;;;4.20;83.30;;;;;;4829521;29;20675;-86
2022/05/04 01:52:27;;;;;;;11.47;5.10;;;4.20;83.40;;;;;;4846374;29;20328;-86
2022/05/04 01:54:53;;;;;;;14.13;4.67;;;4.20;83.30;;;;;;4829306;29;20678;-86
2022/05/04 01:57:20;;;;;;;7.57;3.97;;;4.10;83.40;;;;;;4845678;29;20256;-86
2022/05/04 01:59:45;;;;;;;20.83;7.73;;;4.10;84.20;;;;;;4829133;29;20683;-86
2022/05/04 02:02:11;;;;;;;11.53;4.40;;;4.10;84.40;;;;;;4845824;29;20181;-86
2022/05/04 02:04:38;;;;;;;9.83;4.90;;;4.10;84.30;;;;;;4846019;29;20184;-86
2022/05/04 02:07:04;;;;;;;12.27;4.57;;;4.00;84.70;;;;;;4845621;29;20276;-86
2022/05/04 02:09:30;;;;;;;10.87;5.20;;;4.00;84.90;;;;;;4829146;29;20303;-86
2022/05/04 02:11:56;;;;;;;17.07;5.17;;;4.00;85.50;;;;;;4845791;29;20183;-86
2022/05/04 02:14:22;;;;;;;13.13;5.93;;;4.00;86.20;;;;;;4829264;29;20194;-86
2022/05/04 02:16:47;;;;;;;13.50;5.50;;;4.20;87.50;;;;;;4829288;29;20259;-86
2022/05/04 02:19:12;;;;;;;11.43;5.40;;;4.20;87.80;;;;;;4845575;29;20586;-86
2022/05/04 02:21:39;;;;;;;20.30;5.53;;;4.20;88.10;;;;;;4846109;29;20172;-86
2022/05/04 02:24:05;;;;;;;27.33;6.93;;;4.20;88.30;;;;;;4828806;29;20243;-87
2022/05/04 02:26:30;;;;;;;13.80;6.33;;;4.20;88.60;;;;;;4828935;29;20195;-86
2022/05/04 02:28:56;;;;;;;21.23;7.47;;;4.20;89.10;;;;;;4828902;29;20590;-86
2022/05/04 02:31:21;;;;;;;16.87;5.80;;;4.30;89.10;;;;;;4827920;29;20613;-85
2022/05/04 02:33:47;;;;;;;17.50;5.90;;;4.30;89.50;;;;;;4828875;29;20187;-86
2022/05/04 02:38:58;;;;;;;18.03;7.73;;;4.40;89.60;;;;;;4845314;29;20225;-85
2022/05/04 02:41:24;;;;;;;20.70;7.77;;;4.40;89.70;;;;;;4845457;29;20187;-86
2022/05/04 02:43:49;;;;;;;17.57;6.63;;;4.40;89.90;;;;;;4828658;29;20247;-86
2022/05/04 02:46:18;;;;;;;22.80;6.77;;;4.50;90.00;;;;;;4845251;29;20282;-86
2022/05/04 02:48:43;;;;;;;22.23;6.47;;;4.50;90.00;;;;;;4828296;29;20245;-86
2022/05/04 02:51:09;;;;;;;15.90;6.30;;;4.60;90.10;;;;;;4829483;29;20191;-86
2022/05/04 02:53:35;;;;;;;22.23;6.70;;;4.70;90.00;;;;;;4828481;29;20290;-86
2022/05/04 02:56:01;;;;;;;15.93;6.93;;;4.70;90.00;;;;;;4828366;29;20639;-85
2022/05/04 02:58:27;;;;;;;22.33;6.50;;;4.70;89.90;;;;;;4828407;29;20183;-88
2022/05/04 03:00:52;;;;;;;21.10;6.90;;;4.80;89.90;;;;;;4844772;29;20238;-86
2022/05/04 03:03:18;;;;;;;18.37;6.47;;;4.90;89.80;;;;;;4844843;29;20233;-86
2022/05/04 03:05:44;;;;;;;17.27;6.60;;;4.90;89.60;;;;;;4828167;29;20573;-87
2022/05/04 03:08:10;;;;;;;22.90;7.77;;;5.00;89.50;;;;;;4844629;29;20563;-86
2022/05/04 03:11:54;;;;;;;20.50;7.20;;;5.00;89.40;;;;;;4828191;29;20298;-86
2022/05/04 03:13:22;;;;;;;14.77;6.67;;;5.00;89.50;;;;;;4844508;29;20184;-86
2022/05/04 03:15:47;;;;;;;18.73;7.07;;;5.10;90.00;;;;;;4828098;29;20184;-86
2022/05/04 03:18:13;;;;;;;18.40;7.20;;;5.20;90.00;;;;;;4827957;29;20218;-85
2022/05/04 03:20:38;;;;;;;22.33;7.77;;;5.20;90.00;;;;;;4828189;29;20193;-87
2022/05/04 03:23:04;;;;;;;16.17;6.67;;;5.20;89.90;;;;;;4844466;29;20198;-85
2022/05/04 03:25:29;;;;;;;28.10;9.90;;;5.20;89.90;;;;;;4844334;29;20579;-86
2022/05/04 03:27:55;;;;;;;21.13;7.27;;;5.20;89.80;;;;;;4844353;29;20187;-86
2022/05/04 03:30:20;;;;;;;16.30;6.77;;;5.20;89.70;;;;;;4827822;29;20218;-86
2022/05/04 03:32:46;;;;;;;21.57;7.53;;;5.30;89.60;;;;;;4828719;29;20189;-84
2022/05/04 03:35:11;;;;;;;21.07;7.00;;;5.50;89.60;;;;;;4844161;29;20638;-86
2022/05/04 03:37:37;;;;;;;15.63;6.50;;;5.50;89.60;;;;;;4844426;29;20671;-86
2022/05/04 03:40:03;;;;;;;19.67;7.00;;;5.50;89.40;;;;;;4827740;29;20211;-86
2022/05/04 03:42:28;;;;;;;20.50;7.73;;;5.50;89.40;;;;;;4827365;29;20182;-87
2022/05/04 03:44:54;;;;;;;20.30;7.07;;;5.60;89.30;;;;;;4827569;29;20187;-87
2022/05/04 03:47:20;;;;;;;20.73;8.03;;;5.60;89.20;;;;;;4828340;29;20211;-86
2022/05/04 03:49:45;;;;;;;21.07;7.30;;;5.70;89.20;;;;;;4827550;29;20702;-87
2022/05/04 03:52:11;;;;;;;18.50;6.40;;;5.80;89.10;;;;;;4843814;29;20191;-87
2022/05/04 03:54:36;;;;;;;18.93;6.73;;;5.70;88.70;;;;;;4827369;29;20360;-87
2022/05/04 03:57:03;;;;;;;18.13;5.63;;;5.80;88.30;;;;;;4827423;29;20208;-86
2022/05/04 03:59:29;;;;;;;18.70;5.70;;;5.80;88.20;;;;;;4827374;29;20699;-86
2022/05/04 04:01:55;;;;;;;16.70;6.70;;;5.80;87.80;;;;;;4827412;29;20268;-86
2022/05/04 04:04:20;;;;;;;14.27;5.30;;;5.90;87.80;;;;;;4827322;29;20633;-84
2022/05/04 04:06:46;;;;;;;16.63;5.43;;;6.00;87.80;;;;;;4843561;29;20179;-86
2022/05/04 04:09:11;;;;;;;17.13;5.50;;;6.00;87.70;;;;;;4843505;29;20265;-86
2022/05/04 04:11:37;;;;;;;15.03;5.40;;;6.00;87.60;;;;;;4827117;29;20543;-86
2022/05/04 04:14:02;;;;;;;15.83;5.53;;;6.00;87.50;;;;;;4843382;29;20310;-86
2022/05/04 04:16:29;;;;;;;12.27;4.90;;;6.00;87.50;;;;;;4827142;29;20207;-86
2022/05/04 04:18:54;;;;;;;16.73;5.77;;;6.10;87.40;;;;;;4826891;29;20594;-86
2022/05/04 04:24:04;;;;;;;13.90;5.30;;;6.20;87.50;;;;;;4843839;29;20253;-86
2022/05/04 04:26:30;;;;;;;18.60;5.70;;;6.30;87.70;;;;;;4827152;29;20230;-86
2022/05/04 04:28:55;;;;;;;17.90;5.30;;;6.20;87.70;;;;;;4843231;29;20292;-86
2022/05/04 04:31:21;;;;;;;17.00;5.47;;;6.30;87.20;;;;;;4843392;29;20193;-86
2022/05/04 04:33:47;;;;;;;13.50;5.07;;;6.30;87.20;;;;;;4827141;29;20236;-85
2022/05/04 04:36:12;;;;;;;14.33;5.50;;;6.30;87.10;;;;;;4826759;29;20256;-86
2022/05/04 04:38:38;;;;;;;20.57;5.63;;;6.30;87.00;;;;;;4826653;29;20266;-87
2022/05/04 04:41:04;;;;;;;17.47;4.63;;;6.40;87.00;;;;;;4843452;29;20182;-86
2022/05/04 04:43:29;;;;;;;15.20;5.13;;;6.50;87.00;;;;;;4826750;29;20565;-86
2022/05/04 04:45:55;;;;;;;13.47;4.93;;;6.50;86.80;;;;;;4826658;29;20189;-86
2022/05/04 04:48:21;;;;;;;12.83;4.50;;;6.50;86.70;;;;;;4826734;29;20191;-86
2022/05/04 04:50:47;;;;;;;11.60;4.20;;;6.60;86.60;;;;;;4826693;29;20192;-86
2022/05/04 04:53:19;;;;;;;14.23;4.93;;;6.60;86.60;;;;;;4842630;29;20194;-86
2022/05/04 04:55:45;;;;;;;17.70;5.50;;;6.70;86.30;;;;;;4826559;29;20194;-86
2022/05/04 04:58:11;;;;;;;16.10;5.47;;;6.80;86.20;;;;;;4842804;29;20218;-86
2022/05/04 05:00:37;;;;;;;15.00;4.60;;;6.90;86.10;;;;;;4826498;29;20249;-87
2022/05/04 05:03:03;;;;;;;16.13;5.30;;;6.90;85.80;;;;;;4842705;29;20187;-86
2022/05/04 05:05:29;;;;;;;14.97;5.20;;;6.90;85.60;;;;;;4842767;29;20219;-86
2022/05/04 05:07:54;;;;;;;22.83;4.90;;;6.90;85.50;;;;;;4826453;29;20215;-86
2022/05/04 05:10:20;;;;;;;17.27;5.23;;;7.00;85.20;;;;;;4842839;29;20235;-86
2022/05/04 05:12:45;;;;;;;14.97;4.60;;;7.10;84.90;;;;;;4826386;29;20197;-87
2022/05/04 05:17:55;;;;;;;12.60;5.03;;;7.10;83.90;;;;;;4842895;29;20213;-87
2022/05/04 05:20:21;;;;;;;12.53;5.43;;;7.10;83.90;;;;;;4826395;29;20298;-87
2022/05/04 05:22:46;;;;;;;18.27;5.93;;;7.20;83.70;;;;;;4826632;29;20194;-86
2022/05/04 05:25:12;;;;;;;13.10;5.47;;;7.20;83.80;;;;;;4826640;29;20187;-86
2022/05/04 05:27:37;;;;;;;22.13;6.40;;;7.20;84.10;;;;;;4843270;29;20207;-86
2022/05/04 05:30:04;;;;;;;12.03;5.50;;;7.20;84.40;;;;;;4826632;29;20206;-86
2022/05/04 05:32:30;;;;;;;14.93;5.63;;;7.30;84.40;;;;;;4826338;29;20190;-87
2022/05/04 05:34:55;;;;;;;21.50;5.47;;;7.30;84.30;;;;;;4826607;29;20191;-86
2022/05/04 05:37:21;;;;;;;12.43;5.53;;;7.20;83.60;;;;;;4826192;29;20290;-86
2022/05/04 05:39:47;;;;;;;16.17;5.97;;;7.20;83.40;;;;;;4826222;29;20290;-85
2022/05/04 05:42:13;;;;;;;19.13;5.83;;;7.20;83.60;;;;;;4826215;29;20190;-86
2022/05/04 05:44:38;;;;;;;13.23;5.40;;;7.10;83.30;;;;;;4826217;29;20191;-86
2022/05/04 05:47:04;;;;;;;13.37;5.97;;;7.20;83.60;;;;;;4842676;29;20190;-86
2022/05/04 05:49:30;;;;;;;14.03;5.67;;;7.20;83.80;;;;;;4826041;29;20219;-85
2022/05/04 05:51:57;;;;;;;15.50;6.03;;;7.30;83.60;;;;;;4842679;29;20183;-86
2022/05/04 05:54:22;;;;;;;22.03;5.73;;;7.30;83.40;;;;;;4842349;29;20234;-86
2022/05/04 05:56:48;;;;;;;19.37;5.73;;;7.40;83.30;;;;;;4842562;29;20737;-86
2022/05/04 05:59:13;;;;;;;12.23;5.80;;;7.50;83.40;;;;;;4842507;29;20670;-86
2022/05/04 06:01:39;;;;;;;14.50;6.10;;;7.60;83.10;;;;;;4826289;29;20183;-86
2022/05/04 06:04:05;;;;;;;10.70;5.30;;;7.60;82.90;;;;;;4842280;29;20180;-86
2022/05/04 06:06:31;;;;;;;20.57;5.70;;;7.50;82.20;;;;;;4845671;29;20710;-88
2022/05/04 06:08:56;;;;;;;10.93;4.90;;;7.60;82.30;;;;;;4829285;29;20348;-86
2022/05/04 06:11:22;;;;;;;14.07;5.40;;;7.70;82.10;;;;;;4845736;29;20219;-87
2022/05/04 06:13:52;;;;;;;16.47;5.30;;;7.70;81.90;;;;;;4829284;29;20191;-86
2022/05/04 06:16:17;;;;;;;11.33;4.93;;;7.70;81.50;;;;;;4829248;29;20204;-86
2022/05/04 06:18:43;;;;;;;14.80;5.30;;;7.80;81.70;;;;;;4828845;29;20203;-86
2022/05/04 06:21:08;;;;;;;13.03;4.57;;;7.90;81.70;;;;;;4828937;29;20270;-86
2022/05/04 06:23:34;;;;;;;15.57;5.97;;;7.90;80.90;;;;;;4829128;29;20200;-85
2022/05/04 06:25:59;;;;;;;21.53;4.93;;;7.90;80.40;;;;;;4829128;29;20554;-85
2022/05/04 06:28:25;;;;;;;13.37;4.63;;;8.00;79.90;;;;;;4845418;29;20182;-85
2022/05/04 06:36:18;;;;;;;14.77;4.53;;;8.20;79.00;;;;;;4845640;29;20731;-86
2022/05/04 06:38:44;;;;;;;14.13;4.93;;;8.30;78.90;;;;;;4829118;29;20203;-86
2022/05/04 06:41:09;;;;;;;11.90;4.33;;;8.30;78.20;;;;;;4829069;29;20670;-86
2022/05/04 06:43:35;;;;;;;16.67;4.17;;;8.40;78.30;;;;;;4845362;29;20184;-86
2022/05/04 06:46:01;;;;;;;18.40;4.70;;;8.50;77.80;;;;;;4845540;29;20254;-86
2022/05/04 06:48:27;;;;;;;14.23;4.40;;;8.50;76.80;;;;;;4828731;29;20188;-86
2022/05/04 06:50:52;;;;;;;15.03;3.83;;;8.50;77.40;;;;;;4845303;29;20184;-86
2022/05/04 06:53:18;;;;;;;11.03;4.07;;;8.50;76.60;;;;;;4845112;29;20210;-86
2022/05/04 06:55:43;;;;;;;12.20;4.43;;;8.60;76.30;;;;;;4828884;29;20199;-86
2022/05/04 06:58:09;;;;;;;12.77;3.83;;;8.70;76.00;;;;;;4828331;29;20247;-85
2022/05/04 07:00:35;;;;;;;9.53;3.37;;;8.80;75.90;;;;;;4828504;29;20751;-85
2022/05/04 07:03:00;;;;;;;8.47;2.97;;;8.80;75.70;;;;;;4828550;29;20176;-85
2022/05/04 07:05:26;;;;;;;11.27;3.37;;;8.90;74.60;;;;;;4828678;29;20635;-86
2022/05/04 07:07:53;;;;;;;13.17;3.20;;;9.00;74.70;;;;;;4828415;29;20191;-87
2022/05/04 07:10:18;;;;;;;13.33;4.00;;;9.10;73.10;;;;;;4844811;29;20199;-87
2022/05/04 07:12:44;;;;;;;11.03;3.37;;;9.10;72.90;;;;;;4828363;29;20563;-86
2022/05/04 07:15:10;;;;;;;11.03;3.00;;;9.00;72.10;;;;;;4829048;29;20319;-86
2022/05/04 07:17:35;;;;;;;14.47;4.73;;;9.00;70.90;;;;;;4827451;29;20272;-85
2022/05/04 07:20:01;;;;;;;13.27;4.13;;;9.20;71.30;;;;;;4844831;29;20543;-86
2022/05/04 07:22:26;;;;;;;11.73;2.90;;;9.30;70.90;;;;;;4828189;29;20195;-85
2022/05/04 07:24:52;;;;;;;10.83;2.97;;;9.30;69.40;;;;;;4844637;29;20176;-87
2022/05/04 07:27:18;;;;;;;11.60;3.23;;;9.20;70.50;;;;;;4828143;29;20750;-86
2022/05/04 07:29:45;;;;;;;12.57;2.60;;;9.30;69.60;;;;;;4828256;29;20246;-86
2022/05/04 07:32:11;;;;;;;8.27;2.60;;;9.60;69.70;;;;;;4828111;29;20187;-85
2022/05/04 07:34:37;;;;;;;13.17;2.97;;;9.50;68.40;;;;;;4844657;29;20187;-85
2022/05/04 07:37:03;;;;;;;7.23;2.50;;;9.40;66.70;;;;;;4827740;29;20210;-85
2022/05/04 07:42:21;;;;;;;7.20;2.70;;;9.50;65.40;;;;;;4844749;29;20679;-86
2022/05/04 07:44:49;;;;;;;7.37;2.13;;;9.50;66.20;;;;;;4828016;29;20653;-87
2022/05/04 07:47:14;;;;;;;11.30;2.27;;;9.50;65.70;;;;;;4828860;29;20243;-86
2022/05/04 07:49:40;;;;;;;7.77;2.40;;;9.50;66.00;;;;;;4827855;29;20283;-86
2022/05/04 07:52:06;;;;;;;6.17;2.10;;;9.70;66.20;;;;;;4827696;29;20199;-86
2022/05/04 07:54:31;;;;;;;11.73;3.00;;;9.90;65.70;;;;;;4827373;29;20344;-87
2022/05/04 07:56:57;;;;;;;7.70;2.73;;;10.10;66.20;;;;;;4843973;29;20294;-87
2022/05/04 07:59:23;;;;;;;12.80;2.87;;;10.20;66.10;;;;;;4827405;29;20207;-85
2022/05/04 08:04:34;;;;;;;9.37;2.43;;;10.20;64.00;;;;;;4844216;29;20196;-86
2022/05/04 08:07:01;;;;;;;9.43;3.00;;;10.00;65.20;;;;;;4844158;29;20211;-85
2022/05/04 08:09:27;;;;;;;11.10;2.93;;;10.30;64.90;;;;;;4843846;29;20203;-85
2022/05/04 08:11:53;;;;;;;7.87;2.50;;;10.20;64.30;;;;;;4844487;29;20593;-84
2022/05/04 08:14:19;;;;;;;8.03;2.37;;;10.20;64.10;;;;;;4827638;29;20240;-86
2022/05/04 08:16:45;;;;;;;10.03;2.80;;;10.70;64.50;;;;;;4843694;29;20203;-88
2022/05/04 08:19:10;;;;;;;6.50;2.50;;;11.00;63.70;;;;;;4827418;29;20210;-88
2022/05/04 08:21:37;;;;;;;7.83;2.40;;;10.80;60.80;;;;;;4827228;29;20698;-87
2022/05/04 08:24:03;;;;;;;13.03;2.83;;;10.90;63.70;;;;;;4827691;29;20182;-86
2022/05/04 08:26:29;;;;;;;8.17;2.70;;;10.70;62.70;;;;;;4843492;29;20179;-87
2022/05/04 08:28:54;;;;;;;16.13;2.67;;;10.60;62.20;;;;;;4827304;29;20215;-86
2022/05/04 08:31:23;;;;;;;10.43;2.53;;;10.20;64.10;;;;;;4827256;29;20255;-86
2022/05/04 08:33:49;;;;;;;7.37;2.20;;;10.30;64.60;;;;;;4826809;29;20199;-86
2022/05/04 08:36:15;;;;;;;7.73;2.63;;;10.70;64.40;;;;;;4826979;29;20198;-86
2022/05/04 08:38:41;;;;;;;6.33;2.30;;;10.80;63.20;;;;;;4843350;29;20204;-85
2022/05/04 08:41:07;;;;;;;12.43;3.63;;;10.50;61.60;;;;;;4827166;29;20186;-84
2022/05/04 08:43:33;;;;;;;12.17;3.50;;;11.10;63.20;;;;;;4827667;29;20187;-84
2022/05/04 08:46:03;;;;;;;10.37;2.90;;;11.10;62.40;;;;;;4827326;29;20309;-84
2022/05/04 08:48:32;;;;;;;10.67;2.80;;;11.50;61.70;;;;;;4843159;29;20180;-85
2022/05/04 08:51:01;;;;;;;10.07;2.53;;;11.80;61.80;;;;;;4827194;29;20183;-86
2022/05/04 08:53:27;;;;;;;8.20;2.30;;;12.20;59.70;;;;;;4826861;29;20183;-85
2022/05/04 08:55:53;;;;;;;7.27;1.87;;;12.20;59.70;;;;;;4842977;29;20172;-85
2022/05/04 08:58:20;;;;;;;10.00;2.77;;;11.80;57.70;;;;;;4842963;29;20643;-84
2022/05/04 09:00:45;;;;;;;7.87;2.40;;;11.80;58.70;;;;;;4843249;29;20239;-85
2022/05/04 09:03:11;;;;;;;10.77;2.43;;;11.50;60.00;;;;;;4827030;29;20179;-85
2022/05/04 09:05:41;;;;;;;8.60;2.50;;;11.60;60.80;;;;;;4826737;29;20655;-85
2022/05/04 09:08:08;;;;;;;6.23;2.20;;;12.20;60.70;;;;;;4843370;29;20219;-85
2022/05/04 09:10:38;;;;;;;7.13;2.17;;;12.50;58.70;;;;;;4826919;29;20309;-85
2022/05/04 09:13:05;;;;;;;10.43;2.43;;;12.30;57.50;;;;;;4826552;29;20191;-84
2022/05/04 09:15:33;;;;;;;8.53;2.13;;;12.20;57.60;;;;;;4843288;29;20172;-85
2022/05/04 09:18:00;;;;;;;8.27;2.47;;;11.90;57.40;;;;;;4842768;29;20214;-86
2022/05/04 09:20:45;;;;;;;13.23;2.90;;;12.30;59.00;;;;;;4842772;29;20200;-86
2022/05/04 09:23:30;;;;;;;5.40;1.90;;;12.40;56.60;;;;;;4842660;29;20183;-85
2022/05/04 09:25:58;;;;;;;8.20;1.87;;;12.10;58.50;;;;;;4842711;29;20167;-86
2022/05/04 09:28:26;;;;;;;10.50;2.00;;;12.00;57.80;;;;;;4842725;29;20179;-86
2022/05/04 09:30:57;;;;;;;8.87;2.30;;;12.10;59.20;;;;;;4842794;29;20207;-87
2022/05/04 09:33:32;;;;;;;8.47;2.30;;;12.50;58.60;;;;;;4826282;29;20183;-86
2022/05/04 09:35:59;;;;;;;10.80;2.80;;;12.80;56.30;;;;;;4842906;29;20552;-87
2022/05/04 09:46:46;;;;;;;7.33;2.13;;;13.00;54.40;;;;;;4846515;29;20210;-86
2022/05/04 09:49:13;;;;;;;8.23;2.60;;;12.90;55.30;;;;;;4830260;29;20223;-87
2022/05/04 09:51:40;;;;;;;11.13;2.73;;;12.60;56.10;;;;;;4846315;29;20180;-88
2022/05/04 09:54:27;;;;;;;9.97;2.27;;;12.30;57.70;;;;;;4846070;29;20247;-86
2022/05/04 09:57:01;;;;;;;7.00;2.50;;;12.80;56.80;;;;;;4846275;29;20248;-87
2022/05/04 09:59:31;;;;;;;9.80;2.47;;;12.20;56.10;;;;;;4829634;29;20222;-87
2022/05/04 10:01:59;;;;;;;6.17;2.60;;;12.70;58.40;;;;;;4829835;29;20175;-87
2022/05/04 10:04:26;;;;;;;12.50;2.67;;;13.40;58.10;;;;;;4829468;29;20186;-87
2022/05/04 10:06:52;;;;;;;10.50;2.57;;;13.70;54.90;;;;;;4846090;29;20206;-88
2022/05/04 10:09:19;;;;;;;7.97;2.50;;;14.20;55.90;;;;;;4829442;29;20199;-87
2022/05/04 10:11:46;;;;;;;6.03;2.33;;;14.10;53.80;;;;;;4845897;29;20231;-88
2022/05/04 10:14:15;;;;;;;7.23;2.23;;;14.40;52.40;;;;;;4845808;29;20172;-87
2022/05/04 10:17:11;;;;;;;8.20;2.47;;;14.30;51.80;;;;;;4829018;29;20219;-86
2022/05/04 10:19:49;;;;;;;6.43;2.33;;;14.30;51.60;;;;;;4845950;29;20208;-88
2022/05/04 10:22:20;;;;;;;4.63;1.97;;;14.30;52.10;;;;;;4845678;29;20278;-88
2022/05/04 10:24:46;;;;;;;6.30;2.20;;;13.90;52.00;;;;;;4829905;29;20176;-88
2022/05/04 10:27:23;;;;;;;5.90;2.00;;;13.80;51.40;;;;;;4847508;29;20643;-89
2022/05/04 10:32:43;;;;;;;5.00;1.90;;;13.40;55.50;;;;;;4845852;29;20241;-89
2022/05/04 10:35:35;;;;;;;6.73;2.20;;;13.60;54.10;;;;;;4845570;29;20229;-90
2022/05/04 10:38:00;;;;;;;9.17;2.37;;;13.60;53.90;;;;;;4829898;29;20255;-89
2022/05/04 10:40:54;;;;;;;7.37;2.47;;;13.30;54.20;;;;;;4846423;29;20278;-87
2022/05/04 10:43:34;;;;;;;5.07;1.87;;;13.20;54.00;;;;;;4829389;29;20174;-89
2022/05/04 10:46:06;;;;;;;7.13;2.23;;;13.20;54.60;;;;;;4830848;29;20247;-88
2022/05/04 10:48:31;;;;;;;11.03;2.57;;;13.10;56.50;;;;;;4830958;29;20186;-87
2022/05/04 10:51:18;;;;;;;9.70;2.43;;;13.10;56.70;;;;;;4830835;29;20195;-89
2022/05/04 10:53:46;;;;;;;7.53;2.27;;;13.70;56.60;;;;;;4847066;29;20202;-88
2022/05/04 10:56:25;;;;;;;10.40;2.70;;;13.90;55.20;;;;;;4815677;29;20210;-87
2022/05/04 10:58:51;;;;;;;10.93;2.17;;;13.80;54.60;;;;;;4846742;29;20218;-87
2022/05/04 11:01:26;;;;;;;8.40;2.27;;;14.10;54.00;;;;;;4828693;29;20175;-88
2022/05/04 11:04:10;;;;;;;7.23;2.43;;;14.10;54.20;;;;;;4829126;29;20191;-87
2022/05/04 11:06:40;;;;;;;9.23;2.50;;;14.30;52.20;;;;;;4828352;29;20189;-87
2022/05/04 11:09:06;;;;;;;8.17;2.30;;;14.30;54.40;;;;;;4845435;29;20285;-89
2022/05/04 11:11:33;;;;;;;7.23;2.40;;;14.80;52.90;;;;;;4829002;29;20208;-87
2022/05/04 11:13:59;;;;;;;9.03;2.10;;;15.00;51.00;;;;;;4845046;29;20259;-88
2022/05/04 11:16:28;;;;;;;6.57;2.30;;;14.80;51.40;;;;;;4828194;29;20658;-87
2022/05/04 11:18:53;;;;;;;6.23;2.03;;;15.20;49.40;;;;;;4828697;29;20721;-87
2022/05/04 11:21:19;;;;;;;15.48;2.60;;;15.70;48.70;;;;;;4828335;29;20183;-87
2022/05/04 11:23:47;;;;;;;10.77;2.25;;;15.80;48.70;;;;;;4828201;29;20191;-89
2022/05/04 11:26:32;;;;;;;6.15;2.28;;;15.70;48.30;;;;;;4828369;29;20188;-88
2022/05/04 11:28:58;;;;;;;7.38;2.30;;;16.00;48.20;;;;;;4844576;29;20214;-88
2022/05/04 11:31:23;;;;;;;8.50;2.58;;;15.70;48.70;;;;;;4828785;29;20183;-87
2022/05/04 11:33:50;;;;;;;10.18;2.10;;;16.20;47.70;;;;;;4828390;29;20649;-88
2022/05/04 11:36:22;;;;;;;7.15;2.35;;;15.80;49.10;;;;;;4828192;29;20193;-88
2022/05/04 11:38:49;;;;;;;7.82;2.42;;;15.60;50.30;;;;;;4844733;29;20286;-88
2022/05/04 11:41:15;;;;;;;12.13;2.40;;;16.20;49.40;;;;;;4828198;29;20562;-88
2022/05/04 11:43:42;;;;;;;6.75;2.35;;;16.10;51.70;;;;;;4844749;29;20175;-88
2022/05/04 11:46:10;;;;;;;6.07;2.13;;;16.80;47.80;;;;;;4828078;29;20215;-88
2022/05/04 11:48:43;;;;;;;8.70;2.53;;;16.80;47.30;;;;;;4827958;29;20286;-88
2022/05/04 11:51:11;;;;;;;9.73;2.65;;;16.20;48.40;;;;;;4844375;29;20228;-87
2022/05/04 11:53:37;;;;;;;9.85;2.38;;;16.50;49.10;;;;;;4828239;29;20625;-88
2022/05/04 11:56:04;;;;;;;6.32;2.20;;;15.80;49.70;;;;;;4828466;29;20172;-88
2022/05/04 11:58:35;;;;;;;5.32;2.20;;;16.60;45.70;;;;;;4827583;29;20369;-87
2022/05/04 12:01:03;;;;;;;6.65;2.47;;;17.10;46.40;;;;;;4827526;29;20186;-88
2022/05/04 12:03:31;;;;;;;12.55;2.08;;;17.10;44.50;;;;;;4827443;29;20180;-87
2022/05/04 12:05:59;;;;;;;8.60;3.25;;;16.20;48.00;;;;;;4843860;29;20187;-87
2022/05/04 12:08:25;;;;;;;6.18;2.20;;;16.50;47.60;;;;;;4844165;29;20191;-88
2022/05/04 12:10:55;;;;;;;10.25;2.22;;;16.00;48.20;;;;;;4827518;29;20195;-88
2022/05/04 12:13:25;;;;;;;9.55;2.33;;;16.40;45.90;;;;;;4827238;29;20183;-88
2022/05/04 12:15:55;;;;;;;12.40;2.92;;;16.50;45.70;;;;;;4827518;29;20179;-88
2022/05/04 12:18:27;;;;;;;7.38;2.30;;;16.20;46.50;;;;;;4843780;29;20751;-87
2022/05/04 12:20:53;;;;;;;6.60;2.00;;;15.70;47.90;;;;;;4827223;29;20225;-87
2022/05/04 12:23:18;;;;;;;9.88;2.35;;;15.80;47.80;;;;;;4827523;29;20180;-88
2022/05/04 12:25:44;;;;;;;7.15;2.47;;;16.20;48.50;;;;;;4827149;29;20373;-89
2022/05/04 12:28:11;;;;;;;8.95;2.55;;;15.70;48.80;;;;;;4827178;29;20194;-87
2022/05/04 12:33:34;;;;;;;9.50;2.65;;;16.20;47.30;;;;;;4844016;29;20171;-88
2022/05/04 12:36:04;;;;;;;6.97;2.17;;;16.10;48.40;;;;;;4843956;29;20178;-88
2022/05/04 12:38:31;;;;;;;8.10;2.72;;;16.40;49.40;;;;;;4845169;29;20195;-87
2022/05/04 12:40:57;;;;;;;4.93;2.20;;;16.30;47.10;;;;;;4845586;29;20203;-87
2022/05/04 12:43:24;;;;;;;8.85;2.00;;;16.00;47.70;;;;;;4828741;29;20198;-87
2022/05/04 12:45:53;;;;;;;8.07;2.35;;;15.50;49.10;;;;;;4828037;29;20248;-87
2022/05/04 12:48:25;;;;;;;6.38;2.30;;;15.80;46.60;;;;;;4828299;29;20239;-88
2022/05/04 12:50:53;;;;;;;8.75;2.92;;;15.80;48.00;;;;;;4827872;29;20183;-86
2022/05/04 12:53:19;;;;;;;10.63;2.45;;;16.30;44.60;;;;;;4843172;29;20330;-87
2022/05/04 12:58:28;;;;;;;7.15;2.60;;;16.10;44.50;;;;;;4845104;29;20222;-87
2022/05/04 13:00:55;;;;;;;14.55;2.47;;;15.80;46.20;;;;;;4844816;29;20698;-87
2022/05/04 13:03:21;;;;;;;7.38;2.28;;;15.50;48.30;;;;;;4829743;29;20187;-86
2022/05/04 13:05:47;;;;;;;10.00;2.38;;;15.30;47.70;;;;;;4829113;29;20188;-87
2022/05/04 13:08:12;;;;;;;7.38;2.40;;;14.90;47.80;;;;;;4827872;29;20194;-86
2022/05/04 13:10:38;;;;;;;10.65;2.65;;;15.70;49.50;;;;;;4828376;29;20716;-86
2022/05/04 13:13:04;;;;;;;9.40;2.35;;;16.00;50.30;;;;;;4844706;29;20183;-87
2022/05/04 13:15:29;;;;;;;8.23;2.60;;;16.40;47.60;;;;;;4825894;29;20179;-87
2022/05/04 13:17:55;;;;;;;7.57;2.15;;;16.90;44.90;;;;;;4843301;29;20606;-86
2022/05/04 13:20:21;;;;;;;6.32;1.85;;;16.70;44.90;;;;;;4842830;29;20224;-88
2022/05/04 13:22:47;;;;;;;7.82;2.30;;;16.80;45.50;;;;;;4843267;29;20258;-86
2022/05/04 13:25:12;;;;;;;8.10;2.50;;;16.70;47.00;;;;;;4826458;29;20630;-88